Saturday, November 18, 2017, 4:36 PM EST
Back to Local

KMLT, Millinocket Municipal Airport

Location: Millinocket, ME, United States Lat: 45.65
Local Time: 4:36 PM EST (21:36 GMT) Lon: -68.7
Time Zone: US/Eastern Elev: 406 ft

Show me the last for .
Show Decoded

2017-11-18 15:53 METAR KMLT 182053Z AUTO 00000KT 10SM SCT100 BKN120 01/M07 A2974 RMK AO2 SLP081
                 T00061067 58025 TSNO =
2017-11-18 14:53 METAR KMLT 181953Z AUTO 17003KT 10SM CLR 02/M07 A2980 RMK AO2 SLP100 T00171072
                 TSNO =
2017-11-18 13:53 METAR KMLT 181853Z AUTO VRB03KT 10SM CLR 02/M08 A2979 RMK AO2 SLP096 T00171083
                 TSNO =
2017-11-18 12:53 METAR KMLT 181753Z AUTO VRB03KT 10SM CLR 01/M08 A2982 RMK AO2 SLP106 T00111078
                 10011 21056 56024 TSNO =
2017-11-18 11:53 METAR KMLT 181653Z AUTO VRB03KT 10SM CLR M01/M08 A2984 RMK AO2 SLP115 T10061078
                 TSNO =
2017-11-18 10:53 METAR KMLT 181553Z AUTO 00000KT 10SM OVC110 M01/M08 A2985 RMK AO2 SLP116
                 T10111083 TSNO =
2017-11-18 09:53 METAR KMLT 181453Z AUTO 00000KT 10SM SCT100 M02/M09 A2989 RMK AO2 SLP131
                 T10171089 50002 TSNO =
2017-11-18 08:53 METAR KMLT 181353Z AUTO 33004KT 10SM CLR M03/M09 A2990 RMK AO2 SLP135 T10281089
                 TSNO =
2017-11-18 07:53 METAR KMLT 181253Z AUTO VRB04KT 10SM CLR M04/M09 A2991 RMK AO2 SLP141 T10391089
                 TSNO =
2017-11-18 06:53 METAR KMLT 181153Z AUTO 30006KT 10SM CLR M06/M09 A2988 RMK AO2 SLP130 T10561089
                 11044 21056 51010 TSNO =
2017-11-18 05:53 METAR KMLT 181053Z AUTO 31007KT 10SM CLR M06/M09 A2988 RMK AO2 SLP128 T10561089
                 TSNO =
2017-11-18 04:53 METAR KMLT 180953Z AUTO 29007G15KT 10SM CLR M05/M09 A2988 RMK AO2 SLP128
                 T10501089 TSNO =
2017-11-18 03:53 METAR KMLT 180853Z AUTO 29010G16KT 10SM CLR M05/M08 A2985 RMK AO2 SLP119
                 T10501083 53015 TSNO =
2017-11-18 02:53 METAR KMLT 180753Z AUTO 29011G15KT 10SM CLR M05/M09 A2982 RMK AO2 SLP109
                 T10501089 TSNO =
2017-11-18 01:53 METAR KMLT 180653Z AUTO 29011G20KT 10SM CLR M04/M09 A2982 RMK AO2 SLP108
                 T10441089 TSNO =
2017-11-18 00:53 METAR KMLT 180553Z AUTO 29007G16KT 10SM CLR M04/M09 A2981 RMK AO2 SLP103
                 T10441089 11033 21044 50002 TSNO =
2017-11-17 23:53 METAR KMLT 180453Z AUTO 31016G21KT 10SM CLR M04/M09 A2981 RMK AO2 PK WND
                 31027/0405 SLP106 T10441089 400391044 TSNO =
2017-11-17 22:53 METAR KMLT 180353Z AUTO 31015G20KT 10SM CLR M04/M08 A2981 RMK AO2 PK WND
                 31026/0334 SLP104 T10391083 TSNO =
2017-11-17 21:53 METAR KMLT 180253Z AUTO 31014G27KT 10SM CLR M04/M08 A2980 RMK AO2 PK WND
                 31030/0239 SLP101 T10391083 50003 TSNO =
2017-11-17 20:53 METAR KMLT 180153Z AUTO 30019G28KT 10SM CLR M03/M08 A2981 RMK AO2 PK WND
                 30034/0143 SLP104 T10331083 TSNO =
2017-11-17 19:53 METAR KMLT 180053Z AUTO 31015G26KT 10SM FEW026 M03/M08 A2980 RMK AO2 PK WND
                 31035/0043 SLP103 T10331078 TSNO =
2017-11-17 18:53 METAR KMLT 172353Z AUTO 32013G31KT 270V010 10SM CLR M03/M08 A2979 RMK AO2 PK WND
                 31031/2345 SLP098 T10331078 10000 21033 51021 TSNO =
2017-11-17 17:53 METAR KMLT 172253Z AUTO 31013G23KT 280V340 10SM FEW043 M03/M08 A2977 RMK AO2 PK
                 WND 30029/2213 SLP091 T10281078 TSNO =
2017-11-17 16:53 METAR KMLT 172153Z AUTO 29016G25KT 10SM SCT027 OVC038 M02/M07 A2977 RMK AO2 PK
                 WND 30031/2114 SLP089 T10221072 TSNO =

Support USWX by starting your Amazon purchase here.